Time;durP1;ratioP1;P1;durP2;ratioP2;P2;SDS_P1;SDS_P2;PMS_P1;PMS_P2;Temp;Humidity;BMP_temperature;BMP_pressure;BME280_temperature;BME280_humidity;BME280_pressure;Samples;Min_cycle;Max_cycle;Signal;HPM_P1;HPM_P2
2022/12/14 00:00:58;;;;;;;2.90;2.70;;;19.40;34.70;;;;;;4979949;28;20458;-60
2022/12/14 00:03:23;;;;;;;2.80;2.60;;;19.40;34.70;;;;;;4980668;28;20215;-59
2022/12/14 00:05:49;;;;;;;2.70;2.60;;;19.40;34.70;;;;;;4984536;28;20223;-59
2022/12/14 00:08:16;;;;;;;2.80;2.40;;;19.40;34.70;;;;;;4981437;28;20667;-59
2022/12/14 00:10:42;;;;;;;2.87;2.67;;;19.40;34.70;;;;;;4986214;28;20227;-59
2022/12/14 00:13:11;;;;;;;2.80;2.60;;;19.40;34.70;;;;;;4992363;28;20503;-60
2022/12/14 00:15:37;;;;;;;2.60;2.50;;;19.40;34.70;;;;;;4987726;28;20419;-59
2022/12/14 00:18:02;;;;;;;2.80;2.60;;;19.40;34.70;;;;;;4987274;28;20463;-59
2022/12/14 00:20:28;;;;;;;2.63;2.47;;;19.40;34.70;;;;;;4986624;28;20216;-59
2022/12/14 00:22:54;;;;;;;2.80;2.60;;;19.40;34.70;;;;;;4982820;28;20212;-59
2022/12/14 00:25:21;;;;;;;2.53;2.43;;;19.40;34.70;;;;;;5003040;28;20223;-59
2022/12/14 00:27:47;;;;;;;2.63;2.43;;;19.40;34.70;;;;;;5002306;28;20428;-60
2022/12/14 00:30:16;;;;;;;2.20;2.10;;;19.40;34.70;;;;;;5001345;28;21216;-60
2022/12/14 00:32:42;;;;;;;2.80;2.70;;;19.40;34.70;;;;;;4984711;28;20443;-60
2022/12/14 00:35:13;;;;;;;2.20;2.10;;;19.40;34.70;;;;;;4992042;28;20900;-59
2022/12/14 00:37:39;;;;;;;2.77;2.57;;;19.40;34.70;;;;;;4985145;28;20680;-59
2022/12/14 00:40:06;;;;;;;2.30;2.20;;;19.40;34.70;;;;;;4984259;28;20432;-59
2022/12/14 00:42:32;;;;;;;4.80;2.97;;;19.40;34.70;;;;;;4986171;28;20243;-60
2022/12/14 00:44:58;;;;;;;2.40;2.30;;;19.40;34.70;;;;;;4980759;28;20444;-59
2022/12/14 00:47:23;;;;;;;2.13;2.03;;;19.40;34.70;;;;;;5000208;28;21054;-60
2022/12/14 00:49:49;;;;;;;2.40;2.20;;;19.40;34.70;;;;;;4984464;28;20231;-59
2022/12/14 00:52:14;;;;;;;2.50;2.30;;;19.40;34.70;;;;;;4983637;28;21272;-60
2022/12/14 00:54:41;;;;;;;2.67;2.47;;;19.40;34.60;;;;;;4980250;28;21865;-60
2022/12/14 00:57:06;;;;;;;2.23;2.13;;;19.40;34.70;;;;;;4987791;28;20223;-59
2022/12/14 00:59:32;;;;;;;2.73;2.53;;;19.40;35.40;;;;;;4986627;28;20896;-60
2022/12/14 01:01:57;;;;;;;2.70;2.30;;;19.40;34.70;;;;;;4980095;28;20232;-59
2022/12/14 01:04:23;;;;;;;2.20;2.10;;;19.40;34.60;;;;;;5003280;28;20218;-59
2022/12/14 01:06:50;;;;;;;2.10;2.00;;;19.40;34.60;;;;;;4990752;28;20683;-60
2022/12/14 01:09:16;;;;;;;2.27;2.17;;;19.40;34.60;;;;;;4989275;28;20224;-60
2022/12/14 01:11:42;;;;;;;2.33;2.13;;;19.40;34.70;;;;;;4989509;28;20441;-60
2022/12/14 01:14:09;;;;;;;2.53;2.40;;;19.40;34.70;;;;;;4984329;28;20470;-60
2022/12/14 01:16:35;;;;;;;2.50;2.40;;;19.40;34.60;;;;;;4981864;28;20432;-60
2022/12/14 01:19:01;;;;;;;2.23;2.03;;;19.40;34.60;;;;;;4984219;28;20472;-61
2022/12/14 01:21:27;;;;;;;2.20;2.10;;;19.40;34.60;;;;;;4987291;28;20676;-59
2022/12/14 01:23:58;;;;;;;3.23;2.30;;;19.40;34.70;;;;;;4989708;28;20433;-60
2022/12/14 01:26:25;;;;;;;2.20;2.10;;;19.40;34.70;;;;;;4984062;28;20425;-60
2022/12/14 01:28:56;;;;;;;2.63;2.53;;;19.30;34.60;;;;;;4990840;28;20463;-60
2022/12/14 01:31:23;;;;;;;2.00;1.90;;;19.40;34.60;;;;;;4985515;28;20452;-60
2022/12/14 01:33:49;;;;;;;2.17;2.07;;;19.40;34.60;;;;;;4980516;28;20500;-59
2022/12/14 01:36:18;;;;;;;2.97;2.77;;;19.40;34.70;;;;;;4982387;28;20528;-60
2022/12/14 01:38:44;;;;;;;2.60;2.50;;;19.40;34.60;;;;;;4989563;28;20228;-59
2022/12/14 01:41:28;;;;;;;2.00;1.90;;;19.40;34.60;;;;;;4984722;28;20531;-59
2022/12/14 01:43:57;;;;;;;2.27;2.17;;;19.40;34.60;;;;;;4982812;28;20440;-61
2022/12/14 01:46:31;;;;;;;2.30;2.20;;;19.40;34.70;;;;;;4986293;28;20441;-60
2022/12/14 01:49:27;;;;;;;2.07;1.90;;;19.30;34.60;;;;;;4985162;28;20455;-60
2022/12/14 01:52:03;;;;;;;1.90;1.80;;;19.40;34.60;;;;;;4986914;28;20464;-60
2022/12/14 01:54:33;;;;;;;2.13;2.03;;;19.40;34.60;;;;;;4977793;28;20498;-60
2022/12/14 01:56:58;;;;;;;1.93;1.83;;;19.30;34.60;;;;;;4980288;28;20874;-60
2022/12/14 01:59:32;;;;;;;2.23;2.13;;;19.40;34.70;;;;;;4976919;28;20435;-60
2022/12/14 02:02:01;;;;;;;2.00;1.90;;;19.30;34.60;;;;;;4978669;28;20294;-59
2022/12/14 02:04:27;;;;;;;2.50;2.40;;;19.30;34.60;;;;;;4980368;28;20783;-60
2022/12/14 02:06:53;;;;;;;2.00;1.90;;;19.40;34.60;;;;;;4982996;28;20470;-60
2022/12/14 02:09:25;;;;;;;3.00;2.80;;;19.30;34.60;;;;;;4981584;28;20442;-60
2022/12/14 02:11:54;;;;;;;1.90;1.80;;;19.40;34.60;;;;;;4988849;28;20509;-59
2022/12/14 02:14:20;;;;;;;2.00;1.90;;;19.40;34.60;;;;;;4975037;28;20440;-60
2022/12/14 02:16:53;;;;;;;2.50;2.30;;;19.40;34.70;;;;;;4978418;28;20564;-59
2022/12/14 02:19:18;;;;;;;2.07;1.97;;;19.40;34.70;;;;;;4983072;28;20466;-59
2022/12/14 02:22:08;;;;;;;2.30;2.20;;;19.30;34.70;;;;;;4993807;28;20514;-59
2022/12/14 02:24:51;;;;;;;1.80;1.70;;;19.40;34.60;;;;;;4986842;28;20251;-59
2022/12/14 02:27:53;;;;;;;2.00;1.90;;;19.30;34.60;;;;;;4995616;28;20480;-60
2022/12/14 02:30:24;;;;;;;1.97;1.87;;;19.30;34.60;;;;;;4994216;28;20467;-60
2022/12/14 02:33:22;;;;;;;2.23;2.03;;;19.30;34.60;;;;;;4989088;28;20539;-59
2022/12/14 02:36:14;;;;;;;2.07;1.97;;;19.30;34.60;;;;;;4982610;28;22781;-60
2022/12/14 02:39:06;;;;;;;1.87;1.53;;;19.30;34.60;;;;;;4987722;28;20519;-59
2022/12/14 02:41:50;;;;;;;2.20;2.10;;;19.30;34.60;;;;;;4996689;28;20471;-60
2022/12/14 02:44:27;;;;;;;2.20;2.10;;;19.30;34.60;;;;;;4987471;28;20774;-60
2022/12/14 02:47:12;;;;;;;2.03;1.93;;;19.30;34.60;;;;;;4981501;28;20432;-59
2022/12/14 02:50:32;;;;;;;1.73;1.63;;;19.30;34.60;;;;;;4986488;28;20485;-61
2022/12/14 02:53:01;;;;;;;1.90;1.80;;;19.30;34.60;;;;;;4980922;28;20813;-59
2022/12/14 02:55:34;;;;;;;2.10;2.00;;;19.30;34.60;;;;;;4996503;28;20435;-59
2022/12/14 02:58:29;;;;;;;2.00;1.90;;;19.30;34.60;;;;;;4984792;28;20466;-59
2022/12/14 03:00:55;;;;;;;2.10;2.00;;;19.30;34.60;;;;;;4987464;28;20563;-60
2022/12/14 03:03:21;;;;;;;2.03;1.93;;;19.30;34.60;;;;;;5005318;28;20423;-60
2022/12/14 03:05:55;;;;;;;2.57;2.47;;;19.30;34.60;;;;;;5001533;28;20435;-59
2022/12/14 03:08:20;;;;;;;2.03;1.90;;;19.30;34.60;;;;;;4992433;28;20443;-60
2022/12/14 03:10:50;;;;;;;2.07;1.97;;;19.30;34.60;;;;;;4984438;28;20437;-60
2022/12/14 03:13:37;;;;;;;2.07;1.97;;;19.30;35.30;;;;;;4982802;28;20266;-60
2022/12/14 03:16:21;;;;;;;1.83;1.73;;;19.30;34.60;;;;;;4980401;28;20565;-59
2022/12/14 03:19:12;;;;;;;2.33;2.20;;;19.30;34.60;;;;;;4998635;28;20450;-60
2022/12/14 03:21:45;;;;;;;1.90;1.80;;;19.30;35.30;;;;;;5000622;28;20420;-59
2022/12/14 03:24:15;;;;;;;2.00;1.90;;;19.30;34.60;;;;;;4984462;28;20573;-60
2022/12/14 03:26:55;;;;;;;1.80;1.70;;;19.30;34.60;;;;;;4997427;28;20427;-59
2022/12/14 03:29:28;;;;;;;3.23;2.10;;;19.20;34.50;;;;;;5000886;28;20438;-60
2022/12/14 03:32:11;;;;;;;2.00;1.90;;;19.30;34.60;;;;;;4999977;28;20440;-60
2022/12/14 03:34:44;;;;;;;2.03;1.83;;;19.30;34.50;;;;;;4992177;28;20469;-60
2022/12/14 03:37:19;;;;;;;5.63;2.00;;;19.30;34.70;;;;;;4984959;28;20429;-60
2022/12/14 03:39:46;;;;;;;2.00;1.80;;;19.30;34.60;;;;;;4985840;28;20448;-60
2022/12/14 03:42:22;;;;;;;1.50;1.40;;;19.30;34.60;;;;;;4986459;28;20408;-60
2022/12/14 03:45:17;;;;;;;2.00;1.90;;;19.20;34.50;;;;;;4986056;28;20497;-60
2022/12/14 03:48:12;;;;;;;1.77;1.67;;;19.30;34.60;;;;;;4983637;28;20452;-59
2022/12/14 03:50:51;;;;;;;1.80;1.70;;;19.20;34.40;;;;;;4981723;28;20436;-60
2022/12/14 03:53:32;;;;;;;1.57;1.47;;;19.20;34.60;;;;;;4980273;28;20437;-60
2022/12/14 03:56:13;;;;;;;1.50;1.40;;;19.20;34.60;;;;;;4978816;28;20470;-59
2022/12/14 03:58:52;;;;;;;1.90;1.80;;;19.20;35.20;;;;;;4982642;28;20451;-60
2022/12/14 04:01:38;;;;;;;2.13;2.03;;;19.20;34.40;;;;;;4984360;28;20438;-60
2022/12/14 04:04:14;;;;;;;3.70;1.87;;;19.20;34.40;;;;;;4985300;28;20590;-59
2022/12/14 04:07:03;;;;;;;1.90;1.80;;;19.20;34.50;;;;;;4986478;28;20435;-60
2022/12/14 04:09:49;;;;;;;1.83;1.70;;;19.20;34.40;;;;;;4976628;28;20441;-60
2022/12/14 04:19:03;;;;;;;1.63;1.53;;;19.20;34.40;;;;;;4987472;28;20505;-59
2022/12/14 04:21:18;;;;;;;1.93;1.83;;;19.20;34.40;;;;;;4981042;28;20471;-60
2022/12/14 04:26:41;;;;;;;1.70;1.60;;;19.20;34.50;;;;;;5002416;28;20492;-60
2022/12/14 04:32:04;;;;;;;1.97;1.87;;;19.20;34.50;;;;;;4986683;28;20454;-60
2022/12/14 04:34:31;;;;;;;1.73;1.63;;;19.20;34.40;;;;;;4978536;28;21291;-59
2022/12/14 04:37:00;;;;;;;1.60;1.50;;;19.20;34.40;;;;;;4982507;28;20448;-60
2022/12/14 04:39:34;;;;;;;1.60;1.50;;;19.20;34.40;;;;;;4982856;28;20480;-59
2022/12/14 04:42:03;;;;;;;2.40;1.40;;;19.20;34.30;;;;;;4985276;28;21010;-60
2022/12/14 04:44:34;;;;;;;1.67;1.57;;;19.20;34.30;;;;;;4982630;28;20443;-59
2022/12/14 04:47:01;;;;;;;1.87;1.77;;;19.20;34.30;;;;;;4989227;28;20488;-59
2022/12/14 04:49:54;;;;;;;1.67;1.57;;;19.20;34.30;;;;;;4999589;28;20847;-60
2022/12/14 04:52:35;;;;;;;2.07;1.70;;;19.30;34.40;;;;;;4980876;28;20494;-59
2022/12/14 04:55:11;;;;;;;1.80;1.70;;;19.20;34.20;;;;;;4994066;28;20459;-60
2022/12/14 04:57:52;;;;;;;1.80;1.70;;;19.20;34.20;;;;;;4997312;28;20438;-60
2022/12/14 05:00:18;;;;;;;1.70;1.60;;;19.30;34.30;;;;;;4979264;28;20469;-59
2022/12/14 05:03:10;;;;;;;1.60;1.50;;;19.30;34.30;;;;;;4997817;28;20957;-59
2022/12/14 05:05:43;;;;;;;1.73;1.63;;;19.30;34.30;;;;;;4982143;28;20229;-59
2022/12/14 05:08:39;;;;;;;2.07;1.90;;;19.30;34.20;;;;;;4986254;28;20428;-61
2022/12/14 05:11:27;;;;;;;1.80;1.70;;;19.30;34.30;;;;;;4990647;28;20451;-60
2022/12/14 05:13:53;;;;;;;1.70;1.60;;;19.30;34.20;;;;;;5001455;28;20475;-59
2022/12/14 05:16:21;;;;;;;1.77;1.40;;;19.30;34.20;;;;;;4999790;28;20439;-60
2022/12/14 05:18:47;;;;;;;2.20;2.10;;;19.30;34.20;;;;;;4997490;28;20235;-60
2022/12/14 05:23:59;;;;;;;1.60;1.50;;;19.40;34.30;;;;;;4981434;28;21287;-60
2022/12/14 05:26:24;;;;;;;1.90;1.80;;;19.40;34.30;;;;;;4984715;28;20487;-61
2022/12/14 05:28:50;;;;;;;1.70;1.50;;;19.40;34.30;;;;;;4994802;28;20427;-59
2022/12/14 05:31:15;;;;;;;1.70;1.60;;;19.40;34.30;;;;;;4998825;28;20335;-61
2022/12/14 05:33:41;;;;;;;1.50;1.40;;;19.40;34.30;;;;;;5001612;28;20322;-59
2022/12/14 05:36:08;;;;;;;1.60;1.50;;;19.50;34.40;;;;;;4984300;28;20348;-59
2022/12/14 05:38:34;;;;;;;1.63;1.53;;;19.40;34.30;;;;;;4987569;28;20224;-59
2022/12/14 05:40:59;;;;;;;1.63;1.53;;;19.50;34.50;;;;;;4985113;28;20507;-60
2022/12/14 05:43:25;;;;;;;1.50;1.40;;;19.40;34.30;;;;;;5000974;28;20215;-59
2022/12/14 05:46:00;;;;;;;1.67;1.57;;;19.40;34.30;;;;;;4984239;28;20247;-60
2022/12/14 05:48:26;;;;;;;1.90;1.70;;;19.50;34.30;;;;;;4997414;28;20210;-60
2022/12/14 05:50:51;;;;;;;1.77;1.67;;;19.50;34.30;;;;;;4997487;28;20438;-60
2022/12/14 05:53:17;;;;;;;1.60;1.50;;;19.40;34.30;;;;;;4992386;28;20220;-59
2022/12/14 05:55:50;;;;;;;1.63;1.53;;;19.40;34.20;;;;;;4984299;28;20963;-60
2022/12/14 05:58:16;;;;;;;1.67;1.57;;;19.50;34.30;;;;;;4981390;28;20673;-60
2022/12/14 06:00:42;;;;;;;1.70;1.60;;;19.40;34.30;;;;;;4984090;28;20439;-59
2022/12/14 06:03:08;;;;;;;2.37;2.17;;;19.50;34.30;;;;;;4983293;28;20433;-60
2022/12/14 06:05:34;;;;;;;1.50;1.40;;;19.40;34.20;;;;;;4981221;28;20228;-59
2022/12/14 06:08:00;;;;;;;1.77;1.67;;;19.40;34.20;;;;;;4981863;28;20231;-59
2022/12/14 06:10:25;;;;;;;1.97;1.67;;;19.50;34.20;;;;;;4984858;28;20227;-60
2022/12/14 06:12:51;;;;;;;1.63;1.53;;;19.50;34.20;;;;;;4979612;28;20659;-60
2022/12/14 06:15:16;;;;;;;1.80;1.60;;;19.40;34.10;;;;;;4992471;28;20256;-59
2022/12/14 06:17:43;;;;;;;1.50;1.40;;;19.40;34.10;;;;;;4986168;28;20220;-59
2022/12/14 06:20:09;;;;;;;1.43;1.33;;;19.40;34.10;;;;;;4984718;28;20752;-61
2022/12/14 06:22:35;;;;;;;1.80;1.50;;;19.40;34.10;;;;;;4982663;28;20461;-59
2022/12/14 06:25:00;;;;;;;1.70;1.60;;;19.40;34.10;;;;;;4994836;28;20995;-59
2022/12/14 06:27:26;;;;;;;2.03;1.93;;;19.40;34.10;;;;;;4993927;28;20228;-60
2022/12/14 06:29:51;;;;;;;2.00;1.90;;;19.40;34.10;;;;;;4997494;28;20231;-62
2022/12/14 06:32:17;;;;;;;2.23;2.13;;;19.40;34.10;;;;;;4994922;28;20224;-62
2022/12/14 06:34:44;;;;;;;3.43;2.10;;;19.40;34.10;;;;;;4995152;28;20931;-62
2022/12/14 06:37:09;;;;;;;1.90;1.80;;;19.40;34.20;;;;;;4960396;28;20223;-63
2022/12/14 06:39:35;;;;;;;2.03;1.50;;;19.40;34.20;;;;;;4942251;28;20431;-63
2022/12/14 06:42:00;;;;;;;1.90;1.80;;;19.40;34.10;;;;;;4944670;28;20684;-63
2022/12/14 06:44:26;;;;;;;1.40;1.30;;;19.40;34.10;;;;;;4970395;28;20253;-63
2022/12/14 06:46:51;;;;;;;2.27;2.10;;;19.40;34.10;;;;;;4996537;28;21036;-62
2022/12/14 06:49:17;;;;;;;1.80;1.70;;;19.40;34.10;;;;;;4997750;28;20302;-62
2022/12/14 06:51:43;;;;;;;2.00;1.90;;;19.50;34.10;;;;;;4997537;28;20227;-62
2022/12/14 06:54:11;;;;;;;1.90;1.80;;;19.40;34.10;;;;;;4998698;28;20231;-62
2022/12/14 06:56:37;;;;;;;1.90;1.80;;;19.40;34.00;;;;;;4995621;28;20430;-63
2022/12/14 06:59:04;;;;;;;2.20;1.60;;;19.40;34.10;;;;;;4995111;28;20428;-63
2022/12/14 07:01:30;;;;;;;1.77;1.67;;;19.40;34.10;;;;;;4987531;28;20949;-63
2022/12/14 07:03:58;;;;;;;1.63;1.53;;;19.40;34.00;;;;;;4987059;28;20490;-63
2022/12/14 07:06:25;;;;;;;1.97;1.87;;;19.40;34.00;;;;;;4984901;28;20227;-62
2022/12/14 07:08:55;;;;;;;1.97;1.67;;;19.50;34.10;;;;;;4987082;28;20462;-63
2022/12/14 07:11:21;;;;;;;2.70;1.83;;;19.40;34.00;;;;;;4988415;28;20484;-63
2022/12/14 07:13:47;;;;;;;1.60;1.50;;;19.50;34.00;;;;;;4987654;28;20466;-62
2022/12/14 07:16:17;;;;;;;1.60;1.50;;;19.40;34.00;;;;;;4990941;28;20475;-62
2022/12/14 07:18:42;;;;;;;2.23;1.50;;;19.40;34.00;;;;;;4978859;28;20431;-62
2022/12/14 07:21:10;;;;;;;1.83;1.73;;;19.40;34.00;;;;;;4985665;28;21258;-63
2022/12/14 07:23:37;;;;;;;1.70;1.60;;;19.40;34.00;;;;;;4986827;28;20228;-62
2022/12/14 07:26:06;;;;;;;1.93;1.83;;;19.40;34.00;;;;;;4991630;28;20514;-62
2022/12/14 07:28:32;;;;;;;1.70;1.60;;;19.40;34.00;;;;;;5000981;28;21347;-62
2022/12/14 07:30:58;;;;;;;1.87;1.77;;;19.40;33.90;;;;;;4998144;28;20582;-62
2022/12/14 07:33:25;;;;;;;1.67;1.57;;;19.40;33.90;;;;;;4997436;28;20315;-63
2022/12/14 07:35:51;;;;;;;2.40;2.20;;;19.40;33.90;;;;;;4995390;28;20814;-63
2022/12/14 07:38:17;;;;;;;1.70;1.60;;;19.40;33.90;;;;;;5002705;28;20464;-63
2022/12/14 07:40:44;;;;;;;3.47;1.90;;;19.40;33.80;;;;;;4999591;28;20907;-63
2022/12/14 07:43:09;;;;;;;2.57;2.20;;;19.40;33.80;;;;;;4986112;28;20594;-63
2022/12/14 07:45:35;;;;;;;2.83;2.07;;;19.40;34.60;;;;;;4986357;28;21176;-63
2022/12/14 07:48:01;;;;;;;2.23;2.03;;;19.40;33.90;;;;;;4983837;28;20221;-63
2022/12/14 07:50:27;;;;;;;2.50;2.30;;;19.40;33.80;;;;;;4985055;28;20248;-62
2022/12/14 07:52:52;;;;;;;1.83;1.73;;;19.40;33.80;;;;;;4981109;28;20551;-62
2022/12/14 07:55:18;;;;;;;2.37;1.90;;;19.40;33.80;;;;;;4978981;28;20433;-63
2022/12/14 07:57:43;;;;;;;2.00;1.90;;;19.40;33.80;;;;;;4984872;28;20232;-63
2022/12/14 08:00:09;;;;;;;3.60;1.80;;;19.40;34.00;;;;;;4984030;28;20215;-63
2022/12/14 08:02:35;;;;;;;3.37;2.13;;;19.50;33.90;;;;;;4988480;28;20297;-62
2022/12/14 08:05:00;;;;;;;1.90;1.80;;;19.40;33.80;;;;;;4995004;28;20459;-63
2022/12/14 08:07:26;;;;;;;1.73;1.63;;;19.40;33.70;;;;;;4996777;28;20245;-62
2022/12/14 08:09:52;;;;;;;2.10;2.00;;;19.40;33.70;;;;;;4987377;28;20215;-63
2022/12/14 08:12:17;;;;;;;1.87;1.60;;;19.40;33.70;;;;;;5002659;28;20456;-63
2022/12/14 08:14:43;;;;;;;1.87;1.77;;;19.40;33.70;;;;;;4998428;28;20235;-63
2022/12/14 08:17:08;;;;;;;2.23;1.90;;;19.40;33.80;;;;;;4995214;28;20279;-63
2022/12/14 08:19:34;;;;;;;1.77;1.67;;;19.40;33.70;;;;;;4991414;28;20220;-62
2022/12/14 08:21:59;;;;;;;1.60;1.50;;;19.40;33.70;;;;;;4987408;28;20638;-63
2022/12/14 08:24:25;;;;;;;1.77;1.67;;;19.40;33.70;;;;;;4988160;28;20227;-62
2022/12/14 08:26:50;;;;;;;2.00;1.90;;;19.40;33.80;;;;;;4982973;28;20232;-62
2022/12/14 08:29:17;;;;;;;2.50;2.20;;;19.40;33.80;;;;;;4985258;28;20212;-63
2022/12/14 08:31:42;;;;;;;2.00;1.90;;;19.40;33.70;;;;;;4980116;28;20221;-63
2022/12/14 08:34:08;;;;;;;1.97;1.87;;;19.40;33.70;;;;;;4958133;28;20474;-63
2022/12/14 08:36:34;;;;;;;2.10;2.00;;;19.40;33.70;;;;;;4969507;28;20212;-62
2022/12/14 08:39:05;;;;;;;1.80;1.70;;;19.40;33.70;;;;;;4978573;28;20475;-63
2022/12/14 08:41:31;;;;;;;1.70;1.60;;;19.40;33.80;;;;;;4989018;28;20453;-62
2022/12/14 08:43:59;;;;;;;1.97;1.87;;;19.40;33.70;;;;;;4980613;28;20439;-63
2022/12/14 08:46:26;;;;;;;1.77;1.67;;;19.40;33.70;;;;;;4984957;28;20220;-63
2022/12/14 08:48:53;;;;;;;2.10;2.00;;;19.40;33.70;;;;;;4984867;28;20464;-61
2022/12/14 08:51:19;;;;;;;1.90;1.80;;;19.40;33.70;;;;;;4988498;28;20514;-62
2022/12/14 08:53:46;;;;;;;2.57;1.90;;;19.40;33.80;;;;;;4988769;28;20452;-62
2022/12/14 08:56:14;;;;;;;2.90;1.90;;;19.40;33.70;;;;;;4980965;28;20453;-62
2022/12/14 08:58:40;;;;;;;4.13;2.40;;;19.40;33.70;;;;;;4992507;28;20445;-62
2022/12/14 09:01:12;;;;;;;1.90;1.80;;;19.30;33.50;;;;;;4990704;28;20424;-62
2022/12/14 09:03:43;;;;;;;3.00;1.90;;;19.40;33.50;;;;;;4992383;28;20505;-62
2022/12/14 09:06:10;;;;;;;2.30;2.13;;;19.30;33.40;;;;;;4982048;28;20454;-62
2022/12/14 09:08:36;;;;;;;2.40;2.30;;;19.30;33.40;;;;;;4988675;28;20512;-62
2022/12/14 09:11:03;;;;;;;2.10;2.00;;;19.30;33.30;;;;;;4981313;28;20429;-62
2022/12/14 09:13:30;;;;;;;1.80;1.70;;;19.30;33.20;;;;;;4986403;28;20231;-62
2022/12/14 09:16:04;;;;;;;2.23;2.03;;;19.30;33.00;;;;;;4991196;28;20454;-62
2022/12/14 09:18:30;;;;;;;2.43;2.13;;;19.30;33.10;;;;;;5005493;28;20430;-62
2022/12/14 09:20:56;;;;;;;1.90;1.80;;;19.30;33.00;;;;;;5006586;28;20446;-62
2022/12/14 09:23:23;;;;;;;2.20;1.70;;;19.30;33.10;;;;;;5001491;28;21463;-62
2022/12/14 09:26:13;;;;;;;2.23;2.10;;;19.20;32.90;;;;;;4967263;28;20263;-62
2022/12/14 09:28:40;;;;;;;1.73;1.63;;;19.20;32.90;;;;;;4980753;28;20426;-62
2022/12/14 09:31:09;;;;;;;1.60;1.50;;;19.20;32.90;;;;;;4989535;28;21342;-62
2022/12/14 09:33:35;;;;;;;2.07;1.97;;;19.20;32.90;;;;;;4982289;28;20454;-62
2022/12/14 09:36:13;;;;;;;1.87;1.77;;;19.20;32.90;;;;;;4982914;28;20427;-62
2022/12/14 09:38:39;;;;;;;2.10;2.00;;;19.20;32.90;;;;;;4982353;28;21111;-62
2022/12/14 09:41:19;;;;;;;1.70;1.60;;;19.20;33.00;;;;;;4987701;28;20454;-62
2022/12/14 09:43:54;;;;;;;2.17;2.07;;;19.20;32.90;;;;;;4984510;28;20446;-62
2022/12/14 09:46:50;;;;;;;1.40;1.30;;;19.20;32.90;;;;;;4983248;28;20427;-62
2022/12/14 09:49:26;;;;;;;1.57;1.47;;;19.20;32.90;;;;;;4992580;28;20452;-63
2022/12/14 09:51:53;;;;;;;1.83;1.73;;;19.10;32.90;;;;;;4986486;28;20454;-62
2022/12/14 09:54:25;;;;;;;1.70;1.60;;;19.10;32.90;;;;;;4984334;28;20429;-62
2022/12/14 09:56:53;;;;;;;1.80;1.70;;;19.10;32.80;;;;;;4982975;28;20432;-62
2022/12/14 09:59:19;;;;;;;2.40;2.20;;;19.10;32.80;;;;;;4991439;28;20623;-63
2022/12/14 10:02:23;;;;;;;1.80;1.70;;;19.20;32.90;;;;;;4995871;28;20441;-62
2022/12/14 10:05:16;;;;;;;3.57;1.80;;;19.10;32.80;;;;;;4991846;28;21077;-63
2022/12/14 10:08:01;;;;;;;2.23;2.13;;;19.10;32.80;;;;;;4987061;28;22415;-62
2022/12/14 10:10:47;;;;;;;1.97;1.80;;;19.20;32.90;;;;;;4981817;28;20452;-62
2022/12/14 10:13:34;;;;;;;2.47;2.37;;;19.10;32.90;;;;;;4987545;28;20474;-61
2022/12/14 10:16:26;;;;;;;1.70;1.60;;;19.20;32.90;;;;;;4995237;28;20470;-62
2022/12/14 10:19:02;;;;;;;1.97;1.60;;;19.10;32.80;;;;;;4983074;28;20483;-62
2022/12/14 10:21:41;;;;;;;1.90;1.80;;;19.10;32.80;;;;;;4992980;28;20453;-62
2022/12/14 10:24:14;;;;;;;1.77;1.67;;;19.20;33.00;;;;;;5004584;28;20436;-62
2022/12/14 10:26:53;;;;;;;2.57;2.03;;;19.20;32.90;;;;;;5003271;28;20508;-62
2022/12/14 10:29:45;;;;;;;2.30;2.10;;;19.20;32.90;;;;;;4981936;28;20837;-62
2022/12/14 10:32:27;;;;;;;2.47;2.37;;;19.20;32.90;;;;;;4992714;28;21412;-62
2022/12/14 10:34:53;;;;;;;2.33;2.13;;;19.10;32.80;;;;;;4991556;28;20493;-62
2022/12/14 10:37:26;;;;;;;2.00;1.80;;;19.20;32.90;;;;;;4994928;28;20445;-62
2022/12/14 10:40:09;;;;;;;1.60;1.50;;;19.20;32.90;;;;;;4986420;28;20228;-63
2022/12/14 10:42:53;;;;;;;2.17;2.07;;;19.10;32.90;;;;;;4975311;28;20488;-62
2022/12/14 10:45:55;;;;;;;1.80;1.70;;;19.10;32.80;;;;;;4977217;28;20930;-62
2022/12/14 10:48:24;;;;;;;1.93;1.80;;;19.20;32.90;;;;;;4976714;28;20794;-62
2022/12/14 10:51:01;;;;;;;2.20;2.10;;;19.20;32.90;;;;;;4976418;28;20979;-62
2022/12/14 10:53:36;;;;;;;2.03;1.80;;;19.10;32.90;;;;;;4968125;28;20471;-62
2022/12/14 10:56:08;;;;;;;1.80;1.70;;;19.20;33.00;;;;;;4980239;28;20846;-62
2022/12/14 10:58:33;;;;;;;2.07;1.93;;;19.20;32.90;;;;;;4967503;28;20458;-62
2022/12/14 11:00:59;;;;;;;1.70;1.60;;;19.20;32.90;;;;;;4979552;28;20456;-62
2022/12/14 11:03:25;;;;;;;1.97;1.87;;;19.20;33.00;;;;;;4975901;28;20266;-62
2022/12/14 11:06:17;;;;;;;2.10;2.00;;;19.10;32.80;;;;;;4975437;28;20254;-62
2022/12/14 11:08:46;;;;;;;1.80;1.70;;;19.20;32.90;;;;;;5003405;28;20211;-61
2022/12/14 11:11:24;;;;;;;1.97;1.87;;;19.20;32.90;;;;;;4981852;28;20458;-62
2022/12/14 11:14:04;;;;;;;1.90;1.80;;;19.10;33.70;;;;;;4994509;28;20944;-62
2022/12/14 11:16:35;;;;;;;2.13;1.90;;;19.20;33.00;;;;;;4995957;28;20447;-62
2022/12/14 11:19:02;;;;;;;2.03;1.80;;;19.20;32.90;;;;;;4998715;28;21005;-62
2022/12/14 11:21:30;;;;;;;1.80;1.70;;;19.10;32.80;;;;;;4990706;28;20457;-62
2022/12/14 11:23:55;;;;;;;2.53;2.30;;;19.20;33.00;;;;;;4987933;28;20544;-62
2022/12/14 11:26:32;;;;;;;2.00;1.90;;;19.10;32.80;;;;;;4981129;28;21010;-62
2022/12/14 11:29:00;;;;;;;2.87;2.10;;;19.20;32.90;;;;;;4985453;28;20698;-62
2022/12/14 11:31:32;;;;;;;2.00;1.90;;;19.10;32.80;;;;;;4986394;28;20978;-62
2022/12/14 11:34:00;;;;;;;2.70;2.10;;;19.10;32.80;;;;;;4966233;28;20941;-62
2022/12/14 11:36:35;;;;;;;1.90;1.80;;;19.10;32.80;;;;;;4986977;28;20427;-62
2022/12/14 11:39:06;;;;;;;1.97;1.87;;;19.10;32.90;;;;;;4984825;28;20447;-62
2022/12/14 11:41:37;;;;;;;2.30;2.20;;;19.10;32.80;;;;;;4978329;28;20831;-62
2022/12/14 11:44:15;;;;;;;1.83;1.73;;;19.10;32.80;;;;;;4981221;28;20509;-62
2022/12/14 11:46:48;;;;;;;1.90;1.80;;;19.10;32.80;;;;;;4994577;28;20496;-62
2022/12/14 11:49:39;;;;;;;1.80;1.70;;;19.10;32.80;;;;;;4990489;28;20780;-62
2022/12/14 11:52:05;;;;;;;2.70;2.33;;;19.10;32.80;;;;;;4972159;28;20458;-62
2022/12/14 11:54:32;;;;;;;2.50;2.30;;;19.10;32.80;;;;;;4974650;28;20463;-62
2022/12/14 11:57:06;;;;;;;2.50;2.30;;;19.10;32.90;;;;;;4964575;28;20253;-62
2022/12/14 11:59:52;;;;;;;2.10;2.00;;;19.10;32.90;;;;;;4968956;28;20448;-63
2022/12/14 12:02:29;;;;;;;2.03;1.83;;;19.10;32.80;;;;;;4981964;28;20904;-62
2022/12/14 12:05:05;;;;;;;2.10;2.00;;;19.10;32.80;;;;;;4978791;28;20539;-62
2022/12/14 12:07:35;;;;;;;2.13;1.80;;;19.00;33.60;;;;;;4981092;28;20471;-62
2022/12/14 12:10:19;;;;;;;2.40;2.20;;;19.10;32.80;;;;;;4980776;28;20481;-62
2022/12/14 12:12:50;;;;;;;2.23;2.10;;;19.00;32.80;;;;;;5002721;28;20483;-59
2022/12/14 12:15:20;;;;;;;1.70;1.60;;;19.10;32.90;;;;;;4994099;28;20520;-63
2022/12/14 12:17:52;;;;;;;2.00;1.90;;;19.00;32.80;;;;;;4986338;28;20449;-59
2022/12/14 12:20:24;;;;;;;2.30;2.10;;;19.00;32.80;;;;;;4981499;28;20424;-62
2022/12/14 12:22:55;;;;;;;2.10;1.90;;;19.00;32.80;;;;;;4975897;28;20458;-62
2022/12/14 12:25:22;;;;;;;2.60;2.40;;;19.00;32.80;;;;;;4980059;28;20467;-62
2022/12/14 12:28:09;;;;;;;1.90;1.80;;;19.00;32.80;;;;;;4988717;28;21123;-62
2022/12/14 12:30:39;;;;;;;1.90;1.80;;;19.00;32.80;;;;;;4983305;28;20586;-61
2022/12/14 12:33:17;;;;;;;1.97;1.87;;;19.00;32.80;;;;;;4985023;28;20546;-61
2022/12/14 12:35:48;;;;;;;1.60;1.50;;;19.00;32.80;;;;;;4998367;28;20872;-62
2022/12/14 12:38:42;;;;;;;2.03;1.93;;;19.00;32.80;;;;;;4992321;28;20498;-61
2022/12/14 12:41:17;;;;;;;2.40;2.20;;;19.00;32.80;;;;;;4987254;28;20440;-61
2022/12/14 12:43:52;;;;;;;1.90;1.80;;;19.00;32.80;;;;;;4984303;28;20463;-62
2022/12/14 12:46:26;;;;;;;2.20;2.10;;;19.00;32.80;;;;;;4989939;28;20416;-62
2022/12/14 12:49:09;;;;;;;2.17;2.07;;;19.00;32.80;;;;;;4989681;28;20449;-62
2022/12/14 12:51:55;;;;;;;2.20;2.10;;;19.00;32.80;;;;;;4992903;28;20424;-61
2022/12/14 12:54:26;;;;;;;1.87;1.77;;;19.00;32.80;;;;;;4989571;28;20457;-62
2022/12/14 12:56:55;;;;;;;2.20;1.80;;;19.00;32.80;;;;;;4992706;28;20448;-62
2022/12/14 12:59:36;;;;;;;2.07;1.97;;;19.00;32.80;;;;;;4982930;28;20433;-61
2022/12/14 13:02:36;;;;;;;2.27;2.17;;;19.00;32.80;;;;;;4979790;28;20468;-61
2022/12/14 13:05:10;;;;;;;2.03;1.93;;;19.00;32.80;;;;;;4978621;28;20458;-61
2022/12/14 13:07:42;;;;;;;2.10;2.00;;;19.00;32.80;;;;;;4979950;28;20769;-61
2022/12/14 13:10:21;;;;;;;2.50;2.40;;;19.00;32.80;;;;;;4980432;28;20435;-61
2022/12/14 13:12:50;;;;;;;1.90;1.80;;;19.00;32.80;;;;;;4989049;28;20574;-62
2022/12/14 13:15:18;;;;;;;1.80;1.70;;;19.00;32.80;;;;;;4985481;28;20441;-61
2022/12/14 13:17:49;;;;;;;1.97;1.87;;;19.00;32.80;;;;;;4996104;28;20427;-61
2022/12/14 13:20:28;;;;;;;1.70;1.60;;;19.00;32.80;;;;;;4993887;28;20416;-61
2022/12/14 13:22:55;;;;;;;1.80;1.70;;;19.00;32.80;;;;;;5004384;28;20930;-62
2022/12/14 13:25:25;;;;;;;1.90;1.80;;;19.00;32.80;;;;;;4986536;28;21007;-61
2022/12/14 13:28:17;;;;;;;1.83;1.73;;;19.00;32.90;;;;;;4988055;28;20429;-61